Oakland (OAK/KOAK)

Information

Location
Oakland, CA
Local Time
18:39 / 6:39 pm
GMT Time
02:39 / 2:39 am
Gates
Unassigned
No FAA reported delays
METAR KOAK 170153Z 32004KT 10SM FEW200 10/06 A3011 RMK AO2 SLP195 T01000056
TAF KOAK 162341Z 1700/1806 27005KT P6SM FEW060 FEW200 FM170500 06004KT P6SM FEW050 FM171700 12004KT P6SM FEW009 BKN200 FM172100 24007KT P6SM SCT100 BKN200 FM180300 13003KT P6SM BKN100
  • No charts available